Spirit Of New York — WCW9332 — position and weather

sailwx.info

Track history (hours):
 
Tides and Currents Weather Stations Pressure Air Temp Water Temp Dewpoint Dewpoint Depression Visibility Wind Speed Wind Dir Waves Ship Positions

Spirit Of New York

Owner: SPIRIT CRUISES LLC, NEW YORK, NY. More information available from US FCC via Universal Licensing System and Coast Guard Vessel Documentation Center.

Last reported at 2017-Nov-23 00:00 UTC. Time now 2017-Nov-23 00:21 UTC.
Position N 40°42' W 074°01'.

Length 62 m.

Type: Passenger vessel. MMSI: 338897000.

Date/timePositionNaut miles runAvg speedWind from/ knotsBaromVisibWave heightAir tempDewpointWater temp
2017-Nov-23 00:00N 40°42' W 074°01'4 7.8
2017-Nov-22 23:30N 40°46' W 074°01'1 1.7
2017-Nov-22 23:00N 40°45' W 074°01'0 0.0
2017-Nov-22 22:30N 40°45' W 074°01'  
2017-Nov-20 00:30N 40°45' W 074°01'0 0.9
2017-Nov-20 00:00N 40°45' W 074°01'0 0.0
2017-Nov-19 23:30N 40°45' W 074°01'0 0.0
2017-Nov-19 23:00N 40°45' W 074°01'0 0.0
2017-Nov-19 22:30N 40°45' W 074°01'0 0.0
2017-Nov-19 22:00N 40°45' W 074°01'0 0.0
2017-Nov-19 21:30N 40°45' W 074°01'0 0.0
2017-Nov-19 21:00N 40°45' W 074°01'0 0.0
2017-Nov-19 20:30N 40°45' W 074°01'0 0.0
2017-Nov-19 20:00N 40°45' W 074°01'0 0.0
2017-Nov-19 19:30N 40°45' W 074°01'0 0.0
2017-Nov-19 19:00N 40°45' W 074°01'2 3.6
2017-Nov-19 18:30N 40°43' W 074°01'2 4.3
2017-Nov-19 18:00N 40°41' W 074°02'1 2.8
2017-Nov-19 17:30N 40°42' W 074°01'3 6.0
2017-Nov-19 17:00N 40°45' W 074°01'0 0.0
2017-Nov-19 16:30N 40°45' W 074°01'0 0.0
2017-Nov-19 02:51N 40°45' W 074°01'1 3.1
2017-Nov-19 02:30N 40°44' W 074°01'3 5.9
2017-Nov-19 02:00N 40°41' W 074°03'2 5.0
2017-Nov-19 01:30N 40°42' W 073°60'1 2.5
2017-Nov-19 01:00N 40°43' W 074°01'3 6.2
2017-Nov-19 00:30N 40°46' W 074°00'1 1.9
2017-Nov-19 00:00N 40°45' W 074°01'0 0.0
2017-Nov-18 23:30N 40°45' W 074°01'0 0.0
2017-Nov-18 23:00N 40°45' W 074°01'0 0.0
2017-Nov-18 22:30N 40°45' W 074°01'0 0.0
2017-Nov-18 22:00N 40°45' W 074°01'0 0.0
2017-Nov-18 21:30N 40°45' W 074°01'0 0.0
2017-Nov-18 21:00N 40°45' W 074°01'0 0.0
2017-Nov-18 20:30N 40°45' W 074°01'0 0.0
2017-Nov-18 20:00N 40°45' W 074°01'0 0.0
2017-Nov-18 19:30N 40°45' W 074°01'0 0.0
2017-Nov-18 19:00N 40°45' W 074°01'1 2.5
2017-Nov-18 18:30N 40°44' W 074°01'3 5.4
2017-Nov-18 18:00N 40°41' W 074°03'2 3.0
2017-Nov-18 17:30N 40°43' W 074°01'2 4.9
2017-Nov-18 17:00N 40°45' W 074°01'0 0.0
2017-Nov-18 16:30N 40°45' W 074°01'0 0.0
2017-Nov-18 02:28N 40°45' W 074°01'2 3.9
2017-Nov-18 02:00N 40°43' W 074°01'2 3.5
2017-Nov-18 01:30N 40°42' W 074°02'1 2.2
2017-Nov-18 01:00N 40°42' W 074°01'3 6.5
2017-Nov-18 00:30N 40°45' W 074°01'0 0.8
2017-Nov-18 00:00N 40°45' W 074°01'0 0.0
2017-Nov-17 23:30N 40°45' W 074°01'0 0.0
2017-Nov-17 02:13N 40°45' W 074°01'1 7.0
2017-Nov-17 02:00N 40°43' W 074°01'2 3.7
2017-Nov-17 01:30N 40°42' W 074°02'1 1.9
2017-Nov-17 01:00N 40°42' W 074°01'4 7.4
2017-Nov-17 00:30N 40°45' W 074°01'1 1.2
2017-Nov-16 23:59N 40°45' W 074°01'0 0.0
2017-Nov-16 23:30N 40°45' W 074°01'0 0.0
2017-Nov-16 03:42N 40°45' W 074°01'1 5.2
2017-Nov-16 03:30N 40°44' W 074°01'3 5.1
2017-Nov-16 03:00N 40°41' W 074°02'2 4.5
2017-Nov-16 02:30N 40°42' W 073°60'1 2.2
2017-Nov-16 02:00N 40°42' W 074°01'3 6.7
2017-Nov-16 01:30N 40°45' W 074°01'0 0.9
2017-Nov-16 01:00N 40°45' W 074°01'0 0.0
2017-Nov-16 00:30N 40°45' W 074°01'0 0.0
2017-Nov-16 00:00N 40°45' W 074°01'0 0.0
2017-Nov-15 23:30N 40°45' W 074°01'0 0.0
2017-Nov-15 23:00N 40°45' W 074°01'0 0.0
2017-Nov-15 22:30N 40°45' W 074°01'0 0.0
2017-Nov-15 22:00N 40°45' W 074°01'0 0.0
2017-Nov-15 21:30N 40°45' W 074°01'0 0.0
2017-Nov-15 21:00N 40°45' W 074°01'0 0.0
2017-Nov-15 20:30N 40°45' W 074°01'0 0.0
2017-Nov-15 20:00N 40°45' W 074°01'0 0.0
2017-Nov-15 19:30N 40°45' W 074°01'0 0.0
2017-Nov-15 19:00N 40°45' W 074°01'0 0.0
2017-Nov-15 18:30N 40°45' W 074°01'0 0.0
2017-Nov-15 18:00N 40°45' W 074°01'0 0.0
2017-Nov-15 17:30N 40°45' W 074°01'0 0.0
2017-Nov-15 17:00N 40°45' W 074°01'0 0.4
2017-Nov-15 16:30N 40°45' W 074°01'0 0.4
2017-Nov-15 16:00N 40°45' W 074°01'0 0.2
2017-Nov-15 15:30N 40°45' W 074°01'0 0.2
2017-Nov-15 15:00N 40°45' W 074°01'0 0.0
2017-Nov-15 14:30N 40°45' W 074°01'0 0.2
2017-Nov-15 14:00N 40°45' W 074°01'  
Track history (hours):
 
Tides and Currents Weather Stations Pressure Air Temp Water Temp Dewpoint Dewpoint Depression Visibility Wind Speed Wind Dir Waves Ship Positions

Spirit Of New York

Owner: SPIRIT CRUISES LLC, NEW YORK, NY. More information available from US FCC via Universal Licensing System and Coast Guard Vessel Documentation Center.

Last reported at 2017-Nov-23 00:00 UTC. Time now 2017-Nov-23 00:21 UTC.
Position N 40°42' W 074°01'.

Length 62 m.

Type: Passenger vessel. MMSI: 338897000.

Date/timePositionNaut miles runAvg speedWind from/ knotsBaromVisibWave heightAir tempDewpointWater temp
2017-Nov-23 00:00N 40°42' W 074°01'4 7.8
2017-Nov-22 23:30N 40°46' W 074°01'1 1.7
2017-Nov-22 23:00N 40°45' W 074°01'0 0.0
2017-Nov-22 22:30N 40°45' W 074°01'  
2017-Nov-20 00:30N 40°45' W 074°01'0 0.9
2017-Nov-20 00:00N 40°45' W 074°01'0 0.0
2017-Nov-19 23:30N 40°45' W 074°01'0 0.0
2017-Nov-19 23:00N 40°45' W 074°01'0 0.0
2017-Nov-19 22:30N 40°45' W 074°01'0 0.0
2017-Nov-19 22:00N 40°45' W 074°01'0 0.0
2017-Nov-19 21:30N 40°45' W 074°01'0 0.0
2017-Nov-19 21:00N 40°45' W 074°01'0 0.0
2017-Nov-19 20:30N 40°45' W 074°01'0 0.0
2017-Nov-19 20:00N 40°45' W 074°01'0 0.0
2017-Nov-19 19:30N 40°45' W 074°01'0 0.0
2017-Nov-19 19:00N 40°45' W 074°01'2 3.6
2017-Nov-19 18:30N 40°43' W 074°01'2 4.3
2017-Nov-19 18:00N 40°41' W 074°02'1 2.8
2017-Nov-19 17:30N 40°42' W 074°01'3 6.0
2017-Nov-19 17:00N 40°45' W 074°01'0 0.0
2017-Nov-19 16:30N 40°45' W 074°01'0 0.0
2017-Nov-19 02:51N 40°45' W 074°01'1 3.1
2017-Nov-19 02:30N 40°44' W 074°01'3 5.9
2017-Nov-19 02:00N 40°41' W 074°03'2 5.0
2017-Nov-19 01:30N 40°42' W 073°60'1 2.5
2017-Nov-19 01:00N 40°43' W 074°01'3 6.2
2017-Nov-19 00:30N 40°46' W 074°00'1 1.9
2017-Nov-19 00:00N 40°45' W 074°01'0 0.0
2017-Nov-18 23:30N 40°45' W 074°01'0 0.0
2017-Nov-18 23:00N 40°45' W 074°01'0 0.0
2017-Nov-18 22:30N 40°45' W 074°01'0 0.0
2017-Nov-18 22:00N 40°45' W 074°01'0 0.0
2017-Nov-18 21:30N 40°45' W 074°01'0 0.0
2017-Nov-18 21:00N 40°45' W 074°01'0 0.0
2017-Nov-18 20:30N 40°45' W 074°01'0 0.0
2017-Nov-18 20:00N 40°45' W 074°01'0 0.0
2017-Nov-18 19:30N 40°45' W 074°01'0 0.0
2017-Nov-18 19:00N 40°45' W 074°01'1 2.5
2017-Nov-18 18:30N 40°44' W 074°01'3 5.4
2017-Nov-18 18:00N 40°41' W 074°03'2 3.0
2017-Nov-18 17:30N 40°43' W 074°01'2 4.9
2017-Nov-18 17:00N 40°45' W 074°01'0 0.0
2017-Nov-18 16:30N 40°45' W 074°01'0 0.0
2017-Nov-18 02:28N 40°45' W 074°01'2 3.9
2017-Nov-18 02:00N 40°43' W 074°01'2 3.5
2017-Nov-18 01:30N 40°42' W 074°02'1 2.2
2017-Nov-18 01:00N 40°42' W 074°01'3 6.5
2017-Nov-18 00:30N 40°45' W 074°01'0 0.8
2017-Nov-18 00:00N 40°45' W 074°01'0 0.0
2017-Nov-17 23:30N 40°45' W 074°01'0 0.0
2017-Nov-17 02:13N 40°45' W 074°01'1 7.0
2017-Nov-17 02:00N 40°43' W 074°01'2 3.7
2017-Nov-17 01:30N 40°42' W 074°02'1 1.9
2017-Nov-17 01:00N 40°42' W 074°01'4 7.4
2017-Nov-17 00:30N 40°45' W 074°01'1 1.2
2017-Nov-16 23:59N 40°45' W 074°01'0 0.0
2017-Nov-16 23:30N 40°45' W 074°01'0 0.0
2017-Nov-16 03:42N 40°45' W 074°01'1 5.2
2017-Nov-16 03:30N 40°44' W 074°01'3 5.1
2017-Nov-16 03:00N 40°41' W 074°02'2 4.5
2017-Nov-16 02:30N 40°42' W 073°60'1 2.2
2017-Nov-16 02:00N 40°42' W 074°01'3 6.7
2017-Nov-16 01:30N 40°45' W 074°01'0 0.9
2017-Nov-16 01:00N 40°45' W 074°01'0 0.0
2017-Nov-16 00:30N 40°45' W 074°01'0 0.0
2017-Nov-16 00:00N 40°45' W 074°01'0 0.0
2017-Nov-15 23:30N 40°45' W 074°01'0 0.0
2017-Nov-15 23:00N 40°45' W 074°01'0 0.0
2017-Nov-15 22:30N 40°45' W 074°01'0 0.0
2017-Nov-15 22:00N 40°45' W 074°01'0 0.0
2017-Nov-15 21:30N 40°45' W 074°01'0 0.0
2017-Nov-15 21:00N 40°45' W 074°01'0 0.0
2017-Nov-15 20:30N 40°45' W 074°01'0 0.0
2017-Nov-15 20:00N 40°45' W 074°01'0 0.0
2017-Nov-15 19:30N 40°45' W 074°01'0 0.0
2017-Nov-15 19:00N 40°45' W 074°01'0 0.0
2017-Nov-15 18:30N 40°45' W 074°01'0 0.0
2017-Nov-15 18:00N 40°45' W 074°01'0 0.0
2017-Nov-15 17:30N 40°45' W 074°01'0 0.0
2017-Nov-15 17:00N 40°45' W 074°01'0 0.4
2017-Nov-15 16:30N 40°45' W 074°01'0 0.4
2017-Nov-15 16:00N 40°45' W 074°01'0 0.2
2017-Nov-15 15:30N 40°45' W 074°01'0 0.2
2017-Nov-15 15:00N 40°45' W 074°01'0 0.0
2017-Nov-15 14:30N 40°45' W 074°01'0 0.2
2017-Nov-15 14:00N 40°45' W 074°01'  

Dump ship's entire track history